Time;durP1;ratioP1;P1;durP2;ratioP2;P2;SDS_P1;SDS_P2;PMS_P1;PMS_P2;Temp;Humidity;BMP_temperature;BMP_pressure;BME280_temperature;BME280_humidity;BME280_pressure;Samples;Min_cycle;Max_cycle;Signal;HPM_P1;HPM_P2
2022/03/01 00:00:50;;;;;;;10.50;3.42;;;1.10;99.90;;;;;;1322242;28;10002090;-66
2022/03/01 00:03:18;;;;;;;6.88;4.60;;;1.10;99.90;;;;;;4998497;28;20045;-64
2022/03/01 00:05:45;;;;;;;9.90;3.75;;;1.10;99.90;;;;;;5005509;28;20042;-64
2022/03/01 00:08:12;;;;;;;5.97;3.45;;;1.10;99.90;;;;;;5003174;28;20049;-66
2022/03/01 00:10:39;;;;;;;10.50;4.32;;;1.20;99.90;;;;;;5005766;28;20074;-67
2022/03/01 00:13:07;;;;;;;6.85;3.65;;;1.20;99.90;;;;;;5000528;28;20679;-65
2022/03/01 00:15:34;;;;;;;8.07;3.55;;;1.10;99.90;;;;;;5004179;28;20062;-66
2022/03/01 00:18:01;;;;;;;7.28;2.92;;;1.10;99.90;;;;;;5003500;28;20129;-63
2022/03/01 00:20:31;;;;;;;7.75;3.25;;;1.10;99.90;;;;;;5002495;28;20049;-66
2022/03/01 00:22:57;;;;;;;9.48;3.03;;;1.10;99.90;;;;;;5005324;28;20141;-63
2022/03/01 00:25:24;;;;;;;6.65;3.35;;;1.10;99.90;;;;;;5003207;28;20140;-67
2022/03/01 00:27:52;;;;;;;5.22;2.85;;;1.20;99.90;;;;;;5004490;28;20050;-64
2022/03/01 00:30:18;;;;;;;8.50;3.53;;;1.20;99.90;;;;;;5004978;28;20078;-69
2022/03/01 00:32:46;;;;;;;5.35;3.10;;;1.20;99.90;;;;;;5003660;28;20068;-63
2022/03/01 00:35:13;;;;;;;9.25;3.65;;;1.20;99.90;;;;;;5001671;28;20058;-65
2022/03/01 00:37:40;;;;;;;10.77;3.22;;;1.20;99.90;;;;;;5004259;28;20069;-66
2022/03/01 00:40:08;;;;;;;7.90;4.32;;;1.20;99.90;;;;;;5003346;28;20057;-68
2022/03/01 00:42:35;;;;;;;5.07;2.30;;;1.10;99.90;;;;;;5004568;28;20143;-66
2022/03/01 00:45:02;;;;;;;7.57;3.05;;;1.20;99.90;;;;;;5003420;28;20427;-63
2022/03/01 00:47:29;;;;;;;15.15;3.30;;;1.10;99.90;;;;;;5002569;28;20269;-64
2022/03/01 00:49:57;;;;;;;6.65;2.25;;;1.10;99.90;;;;;;5002200;28;20081;-65
2022/03/01 00:52:24;;;;;;;8.77;3.40;;;1.10;99.90;;;;;;5003934;28;20441;-65
2022/03/01 00:54:51;;;;;;;4.63;2.72;;;1.20;99.90;;;;;;5001906;28;20089;-64
2022/03/01 00:57:18;;;;;;;7.45;2.65;;;1.20;99.90;;;;;;5002046;28;20193;-66
2022/03/01 00:59:45;;;;;;;5.68;2.95;;;1.20;99.90;;;;;;5003110;28;20148;-64
2022/03/01 01:02:12;;;;;;;8.70;3.88;;;1.20;99.90;;;;;;5004502;28;20042;-64
2022/03/01 01:04:39;;;;;;;4.28;2.53;;;1.20;99.90;;;;;;5004065;28;20050;-67
2022/03/01 01:07:07;;;;;;;11.70;3.00;;;1.20;99.90;;;;;;5008288;28;20225;-65
2022/03/01 01:09:34;;;;;;;4.32;2.38;;;1.20;99.90;;;;;;5002578;28;20100;-67
2022/03/01 01:12:01;;;;;;;5.82;2.55;;;1.20;99.90;;;;;;5002221;28;20056;-65
2022/03/01 01:14:28;;;;;;;3.58;2.53;;;1.10;99.90;;;;;;5003553;28;20123;-63
2022/03/01 01:16:55;;;;;;;7.15;2.40;;;1.10;99.90;;;;;;5002051;28;20271;-64
2022/03/01 01:19:22;;;;;;;10.98;2.63;;;1.20;99.90;;;;;;5001160;28;20119;-65
2022/03/01 01:24:55;;;;;;;8.07;2.33;;;1.20;99.90;;;;;;4962853;28;20061;-68
2022/03/01 01:27:22;;;;;;;9.57;2.97;;;1.20;99.90;;;;;;4957874;28;21448;-71
2022/03/01 01:29:49;;;;;;;6.75;2.90;;;1.20;99.90;;;;;;4982386;28;20074;-64
2022/03/01 01:32:16;;;;;;;13.77;5.30;;;1.20;99.90;;;;;;5002093;28;20060;-66
2022/03/01 01:34:42;;;;;;;5.97;3.22;;;1.20;99.90;;;;;;5015316;28;20083;-71
2022/03/01 01:37:09;;;;;;;6.43;2.60;;;1.20;99.90;;;;;;5001659;28;20077;-66
2022/03/01 01:39:36;;;;;;;4.38;2.10;;;1.20;99.90;;;;;;4998761;28;20128;-66
2022/03/01 01:42:03;;;;;;;6.80;2.95;;;1.20;99.90;;;;;;4988402;28;20512;-65
2022/03/01 01:44:38;;;;;;;7.60;2.90;;;1.20;99.90;;;;;;3229668;28;10022180;-65
2022/03/01 01:47:25;;;;;;;5.57;1.90;;;1.20;99.90;;;;;;3274367;28;10002195;-66
2022/03/01 01:49:52;;;;;;;6.05;2.40;;;1.20;99.90;;;;;;5003040;28;20520;-69
2022/03/01 01:52:19;;;;;;;3.78;2.15;;;1.20;99.90;;;;;;5002349;28;20046;-66
2022/03/01 01:54:45;;;;;;;6.72;2.17;;;1.20;99.90;;;;;;5001083;28;20104;-64
2022/03/01 01:57:18;;;;;;;5.50;2.92;;;1.20;99.90;;;;;;5003237;28;20448;-66
2022/03/01 01:59:47;;;;;;;6.07;2.60;;;1.20;99.90;;;;;;4985510;28;20050;-63
2022/03/01 02:02:19;;;;;;;9.93;2.88;;;1.20;99.90;;;;;;5004106;28;20127;-68
2022/03/01 02:04:46;;;;;;;4.50;2.58;;;1.20;99.90;;;;;;5002166;28;20042;-63
2022/03/01 02:07:14;;;;;;;4.20;2.28;;;1.20;99.90;;;;;;5002867;28;20112;-65
2022/03/01 02:09:41;;;;;;;9.88;2.28;;;1.20;99.90;;;;;;4986605;28;20140;-64
2022/03/01 02:12:09;;;;;;;10.07;3.60;;;1.20;99.90;;;;;;5003906;28;20049;-75
2022/03/01 02:14:38;;;;;;;7.30;2.35;;;1.30;99.90;;;;;;5002637;28;20053;-63
2022/03/01 02:17:08;;;;;;;5.85;2.00;;;1.20;99.90;;;;;;5003632;28;20164;-64
2022/03/01 02:19:36;;;;;;;7.68;2.40;;;1.20;99.90;;;;;;4999564;28;20069;-66
2022/03/01 02:22:05;;;;;;;4.50;2.15;;;1.20;99.90;;;;;;5003738;28;20077;-65
2022/03/01 02:24:32;;;;;;;3.35;2.00;;;1.20;99.90;;;;;;5002295;28;20054;-67
2022/03/01 02:27:02;;;;;;;6.10;1.73;;;1.20;99.90;;;;;;5001558;28;20089;-68
2022/03/01 02:29:30;;;;;;;;;;;1.20;99.90;;;;;;4984142;28;20136;-67
2022/03/01 02:32:04;;;;;;;6.43;1.70;;;1.20;99.90;;;;;;5002466;28;19925;-63
2022/03/01 02:34:32;;;;;;;2.28;1.65;;;1.20;99.90;;;;;;5001991;28;20564;-64
2022/03/01 02:36:59;;;;;;;4.03;1.70;;;1.20;99.90;;;;;;4996076;28;20745;-66
2022/03/01 02:39:26;;;;;;;5.43;2.13;;;1.20;99.90;;;;;;4995812;28;20107;-71
2022/03/01 02:41:53;;;;;;;6.15;2.03;;;1.20;99.90;;;;;;5000239;28;20046;-65
2022/03/01 02:44:20;;;;;;;5.45;1.67;;;1.20;99.90;;;;;;5002085;28;20084;-64
2022/03/01 02:46:47;;;;;;;6.53;1.60;;;1.20;99.90;;;;;;5006126;28;20041;-63
2022/03/01 02:49:14;;;;;;;3.88;2.25;;;1.20;99.90;;;;;;5007557;28;20057;-64
2022/03/01 02:51:41;;;;;;;1.92;1.38;;;1.20;99.90;;;;;;5003865;28;20046;-67
2022/03/01 02:54:08;;;;;;;3.65;1.75;;;1.20;99.90;;;;;;5001547;28;20137;-63
2022/03/01 02:56:39;;;;;;;2.73;1.67;;;1.20;99.90;;;;;;4999292;28;20201;-64
2022/03/01 02:59:07;;;;;;;4.32;1.85;;;1.30;99.90;;;;;;5009365;28;20467;-65
2022/03/01 03:01:34;;;;;;;4.97;1.80;;;1.30;99.90;;;;;;5003473;28;20482;-64
2022/03/01 03:04:02;;;;;;;2.63;1.50;;;1.30;99.90;;;;;;4987374;28;20088;-64
2022/03/01 03:06:29;;;;;;;4.00;2.03;;;1.30;99.90;;;;;;4986085;28;20449;-66
2022/03/01 03:08:56;;;;;;;7.95;1.95;;;1.30;99.90;;;;;;5005319;28;20077;-62
2022/03/01 03:11:23;;;;;;;4.43;2.13;;;1.30;99.90;;;;;;4988105;28;20042;-63
2022/03/01 03:13:50;;;;;;;3.67;1.77;;;1.30;99.90;;;;;;4988285;28;20575;-63
2022/03/01 03:16:17;;;;;;;3.25;1.38;;;1.30;99.90;;;;;;5020121;28;20133;-65
2022/03/01 03:18:45;;;;;;;3.47;2.72;;;1.30;99.90;;;;;;5004023;28;20125;-63
2022/03/01 03:21:12;;;;;;;2.40;1.27;;;1.30;99.90;;;;;;5007389;28;20125;-64
2022/03/01 03:23:39;;;;;;;6.40;1.80;;;1.30;99.90;;;;;;4991106;28;20056;-65
2022/03/01 03:26:06;;;;;;;6.78;1.70;;;1.30;99.90;;;;;;5008596;28;20041;-63
2022/03/01 03:28:33;;;;;;;10.38;3.65;;;1.30;99.90;;;;;;5007465;28;20173;-66
2022/03/01 03:31:00;;;;;;;5.78;1.77;;;1.30;99.90;;;;;;5008287;28;20666;-65
2022/03/01 03:33:27;;;;;;;4.22;1.45;;;1.30;99.90;;;;;;5002184;28;20069;-64
2022/03/01 03:35:56;;;;;;;5.30;2.05;;;1.30;99.90;;;;;;5008415;28;20054;-65
2022/03/01 03:38:25;;;;;;;6.65;1.70;;;1.30;99.90;;;;;;5008215;28;20057;-69
2022/03/01 03:40:52;;;;;;;6.30;1.75;;;1.30;99.90;;;;;;5038224;28;20124;-65
2022/03/01 03:43:20;;;;;;;4.88;2.33;;;1.30;99.90;;;;;;4941289;28;20621;-66
2022/03/01 03:45:50;;;;;;;;;;;1.30;99.90;;;;;;1074583;28;10022073;-65
2022/03/01 03:48:17;;;;;;;6.95;2.60;;;1.30;99.90;;;;;;4987604;28;19921;-69
2022/03/01 03:50:44;;;;;;;3.25;2.53;;;1.40;99.90;;;;;;4989540;28;20748;-67
2022/03/01 03:53:11;;;;;;;7.07;1.95;;;1.30;99.90;;;;;;4988025;28;20125;-67
2022/03/01 03:55:38;;;;;;;5.20;2.40;;;1.30;99.90;;;;;;4986590;28;20137;-66
2022/03/01 03:58:05;;;;;;;4.65;1.70;;;1.30;99.90;;;;;;4984563;28;20050;-65
2022/03/01 04:00:32;;;;;;;5.88;2.30;;;1.30;99.90;;;;;;4984110;28;20469;-64
2022/03/01 04:02:59;;;;;;;4.85;2.17;;;1.30;99.90;;;;;;4985741;28;20141;-63
2022/03/01 04:05:26;;;;;;;5.40;3.05;;;1.30;99.90;;;;;;4982185;28;20054;-69
2022/03/01 04:07:53;;;;;;;5.60;2.22;;;1.30;99.90;;;;;;4986156;28;20081;-66
2022/03/01 04:10:20;;;;;;;7.25;2.63;;;1.30;99.90;;;;;;4985249;28;20504;-67
2022/03/01 04:12:47;;;;;;;9.95;1.83;;;1.30;99.90;;;;;;4985806;28;20147;-64
2022/03/01 04:15:15;;;;;;;6.68;2.50;;;1.30;99.90;;;;;;4983987;28;20708;-65
2022/03/01 04:17:42;;;;;;;9.27;2.20;;;1.30;99.90;;;;;;4983901;28;20493;-63
2022/03/01 04:20:09;;;;;;;5.63;2.28;;;1.40;99.90;;;;;;4985795;28;20518;-64
2022/03/01 04:22:37;;;;;;;7.75;2.25;;;1.40;99.90;;;;;;4983880;28;20384;-64
2022/03/01 04:25:06;;;;;;;4.78;2.47;;;1.40;99.90;;;;;;4983816;28;20193;-68
2022/03/01 04:27:33;;;;;;;5.60;2.03;;;1.40;99.90;;;;;;4982187;28;20109;-67
2022/03/01 04:30:00;;;;;;;6.70;4.10;;;1.40;99.90;;;;;;4983585;28;20501;-63
2022/03/01 04:32:27;;;;;;;6.28;2.70;;;1.40;99.90;;;;;;4983205;28;20395;-67
2022/03/01 04:34:54;;;;;;;3.97;2.78;;;1.40;99.90;;;;;;4985908;28;20074;-64
2022/03/01 04:37:21;;;;;;;5.40;2.40;;;1.40;99.90;;;;;;4982627;28;20085;-68
2022/03/01 04:39:48;;;;;;;10.93;2.63;;;1.40;99.90;;;;;;4985245;28;20142;-64
2022/03/01 04:42:16;;;;;;;6.47;2.97;;;1.40;99.90;;;;;;4984119;28;20054;-64
2022/03/01 04:44:43;;;;;;;5.40;3.08;;;1.40;99.90;;;;;;4997879;28;20081;-65
2022/03/01 04:47:11;;;;;;;4.68;2.33;;;1.40;99.90;;;;;;5002990;28;20100;-65
2022/03/01 04:49:38;;;;;;;8.80;3.03;;;1.40;99.90;;;;;;5002040;28;20112;-66
2022/03/01 04:52:05;;;;;;;4.38;2.70;;;1.30;99.90;;;;;;5003060;28;20119;-65
2022/03/01 04:54:32;;;;;;;8.85;3.08;;;1.30;99.90;;;;;;4996531;28;20074;-66
2022/03/01 04:56:59;;;;;;;11.07;3.65;;;1.30;99.90;;;;;;5001950;28;20157;-65
2022/03/01 04:59:26;;;;;;;5.93;2.97;;;1.30;99.90;;;;;;5008935;28;20100;-64
2022/03/01 05:01:53;;;;;;;4.28;3.38;;;1.40;99.90;;;;;;5003853;28;20125;-64
2022/03/01 05:04:22;;;;;;;11.50;4.93;;;1.40;99.90;;;;;;5002705;28;20046;-66
2022/03/01 05:06:49;;;;;;;6.60;4.07;;;1.30;99.90;;;;;;5003135;28;20077;-63
2022/03/01 05:09:16;;;;;;;8.75;3.75;;;1.40;99.90;;;;;;5000964;28;22000;-66
2022/03/01 05:11:43;;;;;;;9.40;3.25;;;1.40;99.90;;;;;;5003154;28;20679;-65
2022/03/01 05:14:10;;;;;;;7.50;3.78;;;1.40;99.90;;;;;;5002682;28;20073;-67
2022/03/01 05:16:37;;;;;;;8.73;4.18;;;1.40;99.90;;;;;;5004098;28;20527;-65
2022/03/01 05:19:05;;;;;;;6.63;4.10;;;1.40;99.90;;;;;;5002811;28;20045;-66
2022/03/01 05:21:34;;;;;;;10.73;4.25;;;1.40;99.90;;;;;;4985744;28;20061;-66
2022/03/01 05:24:02;;;;;;;9.35;3.50;;;1.40;99.90;;;;;;4988371;28;20432;-68
2022/03/01 05:26:29;;;;;;;10.27;3.97;;;1.40;99.90;;;;;;5003652;28;20115;-72
2022/03/01 05:28:57;;;;;;;7.00;3.55;;;1.40;99.90;;;;;;4987145;28;20078;-62
2022/03/01 05:31:25;;;;;;;7.63;3.65;;;1.40;99.90;;;;;;4981624;28;20149;-66
2022/03/01 05:33:52;;;;;;;10.63;4.78;;;1.40;99.90;;;;;;4983279;28;20117;-64
2022/03/01 05:36:20;;;;;;;10.60;4.57;;;1.50;99.90;;;;;;4985759;28;20069;-66
2022/03/01 05:38:47;;;;;;;12.68;4.97;;;1.50;99.90;;;;;;4982960;28;20521;-66
2022/03/01 05:41:15;;;;;;;9.27;6.50;;;1.50;99.90;;;;;;4978153;28;20065;-66
2022/03/01 05:43:41;;;;;;;6.15;4.00;;;1.50;99.90;;;;;;4870942;28;20050;-64
2022/03/01 05:46:08;;;;;;;5.48;3.70;;;1.50;99.90;;;;;;313714;28;10023449;-67
2022/03/01 05:48:35;;;;;;;10.48;4.32;;;1.50;99.90;;;;;;5001619;28;20072;-64
2022/03/01 05:51:04;;;;;;;11.48;5.75;;;1.40;99.90;;;;;;5004444;28;20065;-62
2022/03/01 05:53:31;;;;;;;10.77;5.28;;;1.40;99.90;;;;;;5001209;28;20133;-69
2022/03/01 05:56:00;;;;;;;8.77;4.40;;;1.40;99.90;;;;;;4996716;28;20050;-65
2022/03/01 05:58:27;;;;;;;10.00;4.75;;;1.50;99.90;;;;;;5005517;28;20144;-65
2022/03/01 06:00:54;;;;;;;8.02;4.47;;;1.50;99.90;;;;;;5002898;28;20050;-67
2022/03/01 06:03:21;;;;;;;10.05;5.45;;;1.50;99.90;;;;;;5002159;28;20064;-63
2022/03/01 06:05:48;;;;;;;11.57;4.63;;;1.60;99.90;;;;;;5002719;28;20076;-65
2022/03/01 06:08:15;;;;;;;7.70;4.43;;;1.60;99.90;;;;;;5002308;28;20136;-68
2022/03/01 06:10:42;;;;;;;11.13;5.15;;;1.70;99.90;;;;;;4987654;28;20140;-65
2022/03/01 06:13:09;;;;;;;10.85;5.45;;;1.70;99.90;;;;;;4983989;28;20140;-65
2022/03/01 06:15:36;;;;;;;9.80;4.90;;;1.70;99.90;;;;;;4978326;28;20054;-65
2022/03/01 06:18:03;;;;;;;10.57;5.35;;;1.70;99.90;;;;;;4982934;28;20073;-63
2022/03/01 06:20:30;;;;;;;11.48;4.57;;;1.70;99.90;;;;;;4980497;28;20053;-65
2022/03/01 06:22:57;;;;;;;7.65;5.13;;;1.70;99.90;;;;;;4983704;28;20141;-68
2022/03/01 06:25:24;;;;;;;9.43;5.07;;;1.80;99.90;;;;;;4980629;28;20096;-66
2022/03/01 06:27:52;;;;;;;10.70;5.00;;;1.90;99.90;;;;;;4979225;28;20050;-63
2022/03/01 06:30:19;;;;;;;9.98;5.10;;;1.90;99.90;;;;;;4981200;28;20130;-64
2022/03/01 06:32:46;;;;;;;11.77;5.57;;;2.00;99.90;;;;;;4978767;28;20097;-64
2022/03/01 06:35:13;;;;;;;10.02;4.93;;;2.00;99.90;;;;;;4983714;28;20165;-63
2022/03/01 06:37:46;;;;;;;9.68;6.00;;;2.10;99.90;;;;;;4979498;28;20054;-66
2022/03/01 06:40:13;;;;;;;10.48;5.45;;;2.10;99.90;;;;;;4983917;28;20137;-63
2022/03/01 06:42:40;;;;;;;9.65;5.25;;;2.00;99.90;;;;;;4981731;28;20085;-65
2022/03/01 06:45:08;;;;;;;17.52;6.25;;;2.00;99.90;;;;;;4980849;28;20042;-66
2022/03/01 06:47:35;;;;;;;9.70;5.55;;;2.10;99.90;;;;;;4978415;28;20071;-68
2022/03/01 06:50:03;;;;;;;11.90;5.68;;;2.10;99.90;;;;;;4984274;28;20050;-64
2022/03/01 06:52:32;;;;;;;10.15;5.47;;;2.20;99.90;;;;;;4981518;28;20559;-66
2022/03/01 06:54:59;;;;;;;11.82;5.72;;;2.20;99.90;;;;;;4981873;28;20062;-63
2022/03/01 06:57:26;;;;;;;8.23;5.25;;;2.20;99.90;;;;;;4982915;28;20312;-67
2022/03/01 06:59:53;;;;;;;13.98;5.40;;;2.20;99.90;;;;;;4983020;28;20066;-63
2022/03/01 07:02:21;;;;;;;12.23;6.72;;;2.30;99.90;;;;;;4982808;28;20077;-65
2022/03/01 07:04:49;;;;;;;10.18;5.22;;;2.30;99.90;;;;;;4979867;28;20459;-64
2022/03/01 07:07:16;;;;;;;10.23;5.40;;;2.40;99.90;;;;;;4982483;28;20144;-65
2022/03/01 07:09:42;;;;;;;15.70;6.30;;;2.40;99.90;;;;;;4981440;28;20050;-64
2022/03/01 07:12:09;;;;;;;8.50;5.60;;;2.40;99.90;;;;;;4983688;28;20077;-66
2022/03/01 07:14:37;;;;;;;15.63;7.38;;;2.50;99.90;;;;;;4980087;28;20440;-64
2022/03/01 07:17:04;;;;;;;11.48;6.05;;;2.50;99.90;;;;;;4982283;28;20129;-66
2022/03/01 07:19:31;;;;;;;13.38;5.13;;;2.50;99.90;;;;;;4979976;28;20057;-64
2022/03/01 07:21:58;;;;;;;5.70;4.10;;;2.60;99.90;;;;;;4983257;28;20600;-66
2022/03/01 07:24:25;;;;;;;15.93;6.05;;;2.60;99.90;;;;;;4982562;28;20058;-71
2022/03/01 07:26:52;;;;;;;11.82;6.15;;;2.70;99.90;;;;;;4977922;28;20714;-65
2022/03/01 07:29:20;;;;;;;8.35;5.25;;;2.80;99.90;;;;;;4982914;28;20054;-68
2022/03/01 07:31:47;;;;;;;13.75;5.82;;;2.80;99.90;;;;;;4983357;28;20137;-64
2022/03/01 07:34:24;;;;;;;11.85;5.22;;;2.80;99.90;;;;;;4986050;28;20057;-69
2022/03/01 07:36:52;;;;;;;13.55;5.25;;;2.80;99.90;;;;;;4984655;28;20058;-63
2022/03/01 07:39:19;;;;;;;6.15;4.65;;;2.80;99.90;;;;;;4984351;28;20073;-63
2022/03/01 07:41:47;;;;;;;9.15;5.75;;;2.90;99.90;;;;;;4984416;28;20433;-66
2022/03/01 07:44:15;;;;;;;7.43;4.50;;;2.90;99.90;;;;;;5026613;28;20104;-67
2022/03/01 07:46:45;;;;;;;11.07;7.15;;;2.90;99.90;;;;;;4561192;28;10001021;-63
2022/03/01 07:49:12;;;;;;;12.07;5.68;;;3.00;99.90;;;;;;1723812;28;10002013;-67
2022/03/01 07:51:39;;;;;;;8.55;5.57;;;3.00;99.90;;;;;;5002154;28;20072;-65
2022/03/01 07:54:06;;;;;;;8.07;4.55;;;3.10;99.90;;;;;;5007902;28;20081;-64
2022/03/01 07:56:33;;;;;;;9.07;6.07;;;3.10;99.90;;;;;;4993844;28;20077;-66
2022/03/01 07:59:00;;;;;;;13.75;5.63;;;3.10;99.90;;;;;;4996823;28;20045;-63
2022/03/01 08:01:27;;;;;;;8.85;4.70;;;3.20;99.90;;;;;;5004703;28;20125;-66
2022/03/01 08:03:54;;;;;;;8.32;5.00;;;3.20;99.90;;;;;;4997814;28;20124;-69
2022/03/01 08:06:21;;;;;;;13.07;5.25;;;3.20;99.90;;;;;;4986982;28;20452;-62
2022/03/01 08:08:48;;;;;;;8.55;4.95;;;3.20;99.90;;;;;;4998356;28;20050;-62
2022/03/01 08:11:15;;;;;;;12.95;5.78;;;3.30;99.90;;;;;;5001921;28;20139;-68
2022/03/01 08:13:42;;;;;;;11.77;5.63;;;3.30;99.90;;;;;;5004865;28;20495;-63
2022/03/01 08:16:13;;;;;;;10.20;5.70;;;3.40;99.90;;;;;;5005751;28;20121;-68
2022/03/01 08:18:40;;;;;;;11.02;4.78;;;3.40;99.90;;;;;;5001765;28;20081;-66
2022/03/01 08:21:07;;;;;;;7.55;5.80;;;3.50;99.90;;;;;;5002391;28;20081;-64
2022/03/01 08:23:36;;;;;;;9.38;6.55;;;3.50;99.90;;;;;;5000240;28;20132;-66
2022/03/01 08:26:04;;;;;;;11.05;5.15;;;3.60;99.90;;;;;;5006362;28;20052;-62
2022/03/01 08:28:31;;;;;;;7.95;4.72;;;3.60;99.90;;;;;;5003884;28;20049;-64
2022/03/01 08:30:59;;;;;;;14.20;6.30;;;3.70;99.90;;;;;;5004308;28;20120;-65
2022/03/01 08:33:26;;;;;;;11.70;6.00;;;3.70;99.90;;;;;;5007567;28;20775;-63
2022/03/01 08:35:55;;;;;;;9.55;5.80;;;3.70;99.90;;;;;;5003828;28;20054;-65
2022/03/01 08:38:25;;;;;;;9.57;6.53;;;3.70;99.90;;;;;;5005103;28;20088;-66
2022/03/01 08:40:53;;;;;;;10.50;6.18;;;3.80;99.90;;;;;;5003589;28;20144;-63
2022/03/01 08:43:21;;;;;;;9.82;6.40;;;3.70;99.90;;;;;;5002486;28;20693;-66
2022/03/01 08:45:49;;;;;;;11.88;5.93;;;3.80;99.90;;;;;;5003156;28;20146;-66
2022/03/01 08:48:17;;;;;;;16.65;8.05;;;3.90;99.90;;;;;;5002027;28;20042;-64
2022/03/01 08:50:44;;;;;;;12.43;8.07;;;3.90;99.90;;;;;;5003907;28;20053;-62
2022/03/01 08:53:16;;;;;;;10.75;6.93;;;3.90;99.90;;;;;;5003370;28;20521;-65
2022/03/01 08:55:43;;;;;;;14.18;7.40;;;3.90;99.90;;;;;;5003722;28;20053;-62
2022/03/01 08:58:10;;;;;;;9.15;5.80;;;3.90;99.90;;;;;;5003445;28;20076;-67
2022/03/01 09:00:37;;;;;;;12.35;6.97;;;4.00;99.90;;;;;;5003631;28;20088;-65
2022/03/01 09:03:05;;;;;;;14.48;7.40;;;3.90;99.90;;;;;;5002546;28;20128;-63
2022/03/01 09:05:34;;;;;;;11.50;5.75;;;4.00;99.90;;;;;;5002125;28;22724;-63
2022/03/01 09:08:01;;;;;;;13.18;6.95;;;4.10;99.90;;;;;;5003552;28;20402;-64
2022/03/01 09:10:28;;;;;;;13.13;7.72;;;4.10;99.90;;;;;;5004545;28;20099;-65
2022/03/01 09:12:56;;;;;;;14.07;7.25;;;4.10;99.90;;;;;;5002860;28;20141;-64
2022/03/01 09:15:30;;;;;;;14.73;7.22;;;4.10;99.90;;;;;;5002720;28;20057;-63
2022/03/01 09:17:59;;;;;;;11.93;5.80;;;4.10;99.90;;;;;;5002674;28;20045;-63
2022/03/01 09:20:27;;;;;;;12.23;7.18;;;4.20;99.90;;;;;;5004806;28;20585;-68
2022/03/01 09:22:55;;;;;;;13.10;5.55;;;4.20;99.90;;;;;;5001076;28;20153;-67
2022/03/01 09:25:22;;;;;;;16.40;6.20;;;4.20;99.90;;;;;;5003409;28;20155;-63
2022/03/01 09:27:49;;;;;;;16.52;7.47;;;4.30;99.90;;;;;;4998793;28;20429;-64
2022/03/01 09:30:16;;;;;;;11.48;6.22;;;4.30;99.90;;;;;;5004211;28;20185;-64
2022/03/01 09:32:44;;;;;;;17.95;10.02;;;4.20;99.90;;;;;;5002693;28;20050;-62
2022/03/01 09:35:12;;;;;;;11.65;6.30;;;4.30;99.90;;;;;;4988598;28;20050;-63
2022/03/01 09:37:41;;;;;;;11.13;6.47;;;4.30;99.90;;;;;;4981134;28;20143;-65
2022/03/01 09:40:11;;;;;;;15.48;6.72;;;4.40;99.90;;;;;;4985041;28;20042;-63
2022/03/01 09:42:39;;;;;;;14.10;6.30;;;4.40;99.90;;;;;;4983239;28;20126;-69
2022/03/01 09:45:08;;;;;;;11.15;7.03;;;4.40;99.90;;;;;;4961185;28;20543;-64
2022/03/01 09:47:40;;;;;;;13.67;6.17;;;4.50;99.90;;;;;;3112651;28;10002426;-62
2022/03/01 09:50:08;;;;;;;18.10;6.30;;;4.50;99.90;;;;;;2917512;28;10002002;-63
2022/03/01 09:52:35;;;;;;;17.05;7.75;;;4.50;99.90;;;;;;4982655;28;20412;-64
2022/03/01 09:55:03;;;;;;;9.90;5.78;;;4.60;99.90;;;;;;4982540;28;20137;-63
2022/03/01 09:57:30;;;;;;;12.02;6.25;;;4.60;99.90;;;;;;4979136;28;20078;-65
2022/03/01 09:59:56;;;;;;;14.57;6.07;;;4.60;99.90;;;;;;4983576;28;20140;-65
2022/03/01 10:02:34;;;;;;;12.40;6.60;;;4.70;99.90;;;;;;4983241;28;20065;-69
2022/03/01 10:05:02;;;;;;;12.95;6.93;;;4.70;99.90;;;;;;4982402;28;20031;-62
2022/03/01 10:07:30;;;;;;;13.32;6.47;;;4.80;99.90;;;;;;4981147;28;20429;-68
2022/03/01 10:10:05;;;;;;;15.38;7.85;;;4.90;99.90;;;;;;4987128;28;20104;-67
2022/03/01 10:12:32;;;;;;;13.40;6.38;;;5.00;99.90;;;;;;4995264;28;20110;-63
2022/03/01 10:15:10;;;;;;;18.48;8.15;;;5.00;99.90;;;;;;4986264;28;20105;-65
2022/03/01 10:17:40;;;;;;;16.15;7.10;;;5.00;99.90;;;;;;4970464;28;20863;-66
2022/03/01 10:20:13;;;;;;;21.58;7.13;;;4.90;99.90;;;;;;4975878;28;20054;-66
2022/03/01 10:22:44;;;;;;;12.77;7.60;;;4.90;99.90;;;;;;4978591;28;20080;-67
2022/03/01 10:25:13;;;;;;;11.10;7.22;;;5.00;99.90;;;;;;4983103;28;20473;-64
2022/03/01 10:27:43;;;;;;;10.68;7.60;;;5.00;99.90;;;;;;4998502;28;20438;-64
2022/03/01 10:30:11;;;;;;;9.98;7.25;;;5.00;99.90;;;;;;5001938;28;20132;-62
2022/03/01 10:32:38;;;;;;;11.68;6.75;;;4.90;99.90;;;;;;5000619;28;20057;-65
2022/03/01 10:35:09;;;;;;;;;;;5.00;99.90;;;;;;5005236;28;20048;-62
2022/03/01 10:37:38;;;;;;;13.73;6.93;;;5.10;99.90;;;;;;4997621;28;19929;-65
2022/03/01 10:40:15;;;;;;;17.10;8.05;;;5.10;99.90;;;;;;4992383;28;20108;-64
2022/03/01 10:42:45;;;;;;;11.63;6.40;;;5.10;99.90;;;;;;4980623;28;20427;-65
2022/03/01 10:45:13;;;;;;;20.10;6.65;;;5.20;99.90;;;;;;4998482;28;20042;-66
2022/03/01 10:47:50;;;;;;;12.18;6.68;;;5.20;99.90;;;;;;4999704;28;20042;-69
2022/03/01 10:50:17;;;;;;;12.95;6.80;;;5.10;99.90;;;;;;5002145;28;20145;-62
2022/03/01 10:52:46;;;;;;;18.25;6.82;;;5.10;99.90;;;;;;4998795;28;20050;-62
2022/03/01 10:55:30;;;;;;;14.45;6.38;;;5.10;99.90;;;;;;4996906;28;20600;-64
2022/03/01 10:58:06;;;;;;;15.55;7.20;;;5.20;99.90;;;;;;4999761;28;20095;-64
2022/03/01 11:00:35;;;;;;;10.30;6.50;;;5.20;99.90;;;;;;5000636;28;20104;-62
2022/03/01 11:03:07;;;;;;;8.80;6.88;;;5.30;99.90;;;;;;5001862;28;20938;-63
2022/03/01 11:05:35;;;;;;;12.13;6.00;;;5.30;99.90;;;;;;5000470;28;20050;-64
2022/03/01 11:08:29;;;;;;;12.98;6.65;;;5.30;99.90;;;;;;5004224;28;20052;-63
2022/03/01 11:11:00;;;;;;;12.00;7.32;;;5.40;99.90;;;;;;5006897;28;20072;-63
2022/03/01 11:13:27;;;;;;;;;;;5.30;99.90;;;;;;5003061;28;20423;-65
2022/03/01 11:16:12;;;;;;;15.13;7.15;;;5.30;99.90;;;;;;5007538;28;20550;-62
2022/03/01 11:18:52;;;;;;;18.05;7.13;;;5.30;99.90;;;;;;5005488;28;20073;-65
2022/03/01 11:21:21;;;;;;;11.43;6.90;;;5.20;99.90;;;;;;5005256;28;20223;-62
2022/03/01 11:23:52;;;;;;;17.02;7.03;;;5.30;99.90;;;;;;5005518;28;20049;-63
2022/03/01 11:26:22;;;;;;;11.73;7.28;;;5.20;99.90;;;;;;5003483;28;20185;-62
2022/03/01 11:28:54;;;;;;;17.73;8.68;;;5.30;99.90;;;;;;5005061;28;20562;-64
2022/03/01 11:31:26;;;;;;;12.73;8.20;;;5.30;99.90;;;;;;5004770;28;20065;-64
2022/03/01 11:34:05;;;;;;;14.32;8.80;;;5.20;99.90;;;;;;5005259;28;20380;-63
2022/03/01 11:36:33;;;;;;;19.92;7.75;;;5.30;99.90;;;;;;5004748;28;20817;-63
2022/03/01 11:39:18;;;;;;;14.20;8.65;;;5.40;99.90;;;;;;5006503;28;20421;-64
2022/03/01 11:41:51;;;;;;;18.10;8.85;;;5.30;99.90;;;;;;5003271;28;20785;-63
2022/03/01 11:44:22;;;;;;;15.40;8.57;;;5.40;99.90;;;;;;5005211;28;20136;-66
2022/03/01 11:46:50;;;;;;;14.38;8.55;;;5.30;99.90;;;;;;5004625;28;20696;-62
2022/03/01 11:49:19;;;;;;;15.95;7.97;;;5.30;99.90;;;;;;5004816;28;20550;-64
2022/03/01 11:51:49;;;;;;;15.32;7.90;;;5.40;99.90;;;;;;5004040;28;20133;-64
2022/03/01 11:54:26;;;;;;;12.35;9.30;;;5.40;99.90;;;;;;5006243;28;20077;-64
2022/03/01 11:56:56;;;;;;;16.58;7.38;;;5.30;99.90;;;;;;5004851;28;20395;-63
2022/03/01 11:59:25;;;;;;;19.52;11.27;;;5.30;99.90;;;;;;5001742;28;20058;-65
2022/03/01 12:02:11;;;;;;;23.25;9.05;;;5.30;99.90;;;;;;4999153;28;20125;-62
2022/03/01 12:04:48;;;;;;;20.77;9.73;;;5.20;99.90;;;;;;5005215;28;20433;-62
2022/03/01 12:07:24;;;;;;;23.55;8.82;;;5.20;99.90;;;;;;5002929;28;20116;-63
2022/03/01 12:09:57;;;;;;;14.38;8.75;;;5.20;99.90;;;;;;5000686;28;20050;-63
2022/03/01 12:12:36;;;;;;;22.73;10.32;;;5.10;99.90;;;;;;4993514;28;20054;-66
2022/03/01 12:15:06;;;;;;;16.45;9.95;;;5.00;99.90;;;;;;5006418;28;20165;-65
2022/03/01 12:17:40;;;;;;;18.63;8.93;;;5.00;99.90;;;;;;5001099;28;20707;-62
2022/03/01 12:20:10;;;;;;;19.77;9.50;;;5.10;99.90;;;;;;5005329;28;20507;-64
2022/03/01 12:22:37;;;;;;;26.27;11.68;;;5.10;99.90;;;;;;5004848;28;20507;-66
2022/03/01 12:25:05;;;;;;;18.38;9.20;;;5.10;99.90;;;;;;4989175;28;20047;-63
2022/03/01 12:27:31;;;;;;;17.90;10.38;;;5.10;99.90;;;;;;5003392;28;20057;-64
2022/03/01 12:30:03;;;;;;;20.33;9.98;;;5.00;99.90;;;;;;5004145;28;20156;-65
2022/03/01 12:32:33;;;;;;;18.42;8.82;;;5.00;99.90;;;;;;4996102;28;20152;-63
2022/03/01 12:35:02;;;;;;;15.23;10.63;;;5.10;99.90;;;;;;4998530;28;20058;-65
2022/03/01 12:37:30;;;;;;;13.52;10.35;;;5.10;99.90;;;;;;5004260;28;20064;-63
2022/03/01 12:39:57;;;;;;;18.98;11.43;;;5.00;99.90;;;;;;5002758;28;20054;-63
2022/03/01 12:42:28;;;;;;;14.93;9.65;;;4.90;99.90;;;;;;5004924;28;20637;-67
2022/03/01 12:44:55;;;;;;;20.00;11.90;;;4.80;99.90;;;;;;5004023;28;20436;-64
2022/03/01 12:47:22;;;;;;;14.18;9.10;;;4.90;99.90;;;;;;5002275;28;20073;-62
2022/03/01 12:49:49;;;;;;;18.95;10.57;;;4.90;99.90;;;;;;4988514;28;20084;-65
2022/03/01 12:52:20;;;;;;;18.63;9.25;;;5.00;99.90;;;;;;5005403;28;20149;-63
2022/03/01 12:54:49;;;;;;;23.92;10.70;;;5.00;99.90;;;;;;4990606;28;20061;-63
2022/03/01 12:57:17;;;;;;;23.13;9.45;;;5.00;99.90;;;;;;4982073;28;20060;-64
2022/03/01 12:59:44;;;;;;;20.33;10.88;;;5.10;99.90;;;;;;4984355;28;20129;-62
2022/03/01 13:02:15;;;;;;;16.85;10.70;;;5.00;99.90;;;;;;4992833;28;20045;-65